Time;durP1;ratioP1;P1;durP2;ratioP2;P2;SDS_P1;SDS_P2;PMS_P1;PMS_P2;Temp;Humidity;BMP_temperature;BMP_pressure;BME280_temperature;BME280_humidity;BME280_pressure;Samples;Min_cycle;Max_cycle;Signal;HPM_P1;HPM_P2
2023/01/25 00:02:14;;;;;;;8.45;4.88;;;;;;;;;;7388537;19;19999;-71
2023/01/25 00:04:40;;;;;;;7.68;4.43;;;;;;;;;;7392823;19;20075;-73
2023/01/25 00:07:05;;;;;;;12.05;6.25;;;;;;;;;;7388011;19;20003;-71
2023/01/25 00:09:30;;;;;;;6.18;3.65;;;;;;;;;;7388485;19;20006;-70
2023/01/25 00:11:57;;;;;;;11.52;6.22;;;;;;;;;;7386331;19;19999;-70
2023/01/25 00:14:23;;;;;;;10.27;5.55;;;;;;;;;;7387681;19;20006;-70
2023/01/25 00:16:48;;;;;;;13.35;5.70;;;;;;;;;;7385654;19;20012;-70
2023/01/25 00:19:14;;;;;;;8.18;4.68;;;;;;;;;;7386507;19;19999;-71
2023/01/25 00:21:40;;;;;;;18.33;5.88;;;;;;;;;;7386103;19;20374;-70
2023/01/25 00:24:06;;;;;;;13.73;6.15;;;;;;;;;;7385851;19;20066;-71
2023/01/25 00:26:33;;;;;;;8.13;4.07;;;;;;;;;;7387322;19;20006;-71
2023/01/25 00:28:58;;;;;;;15.27;5.57;;;;;;;;;;7387544;19;19998;-71
2023/01/25 00:31:32;;;;;;;7.93;3.70;;;;;;;;;;7385866;19;20003;-71
2023/01/25 00:34:14;;;;;;;10.52;5.63;;;;;;;;;;7386874;19;20035;-70
2023/01/25 00:36:40;;;;;;;11.35;5.68;;;;;;;;;;7387213;19;20010;-72
2023/01/25 00:39:11;;;;;;;15.63;6.00;;;;;;;;;;7387049;19;20091;-71
2023/01/25 00:41:36;;;;;;;11.93;5.97;;;;;;;;;;7385434;19;20002;-72
2023/01/25 00:44:01;;;;;;;7.95;3.95;;;;;;;;;;7390983;19;19999;-71
2023/01/25 00:46:27;;;;;;;10.85;5.05;;;;;;;;;;7393541;19;20007;-70
2023/01/25 00:48:56;;;;;;;8.70;4.68;;;;;;;;;;7393226;19;20563;-70
2023/01/25 00:51:23;;;;;;;10.70;5.60;;;;;;;;;;7395576;19;20013;-70
2023/01/25 00:53:48;;;;;;;11.23;5.45;;;;;;;;;;7393409;19;20006;-71
2023/01/25 00:56:13;;;;;;;12.80;6.25;;;;;;;;;;7393446;19;20015;-70
2023/01/25 00:58:41;;;;;;;11.23;6.32;;;;;;;;;;7393853;19;19998;-70
2023/01/25 01:01:07;;;;;;;11.60;4.65;;;;;;;;;;7391946;19;20473;-70
2023/01/25 01:03:32;;;;;;;7.45;4.35;;;;;;;;;;7392125;19;20010;-70
2023/01/25 01:06:02;;;;;;;12.07;5.80;;;;;;;;;;7391468;19;20512;-70
2023/01/25 01:08:28;;;;;;;10.80;5.40;;;;;;;;;;7393300;19;20095;-70
2023/01/25 01:11:00;;;;;;;10.48;5.53;;;;;;;;;;7397007;19;20006;-71
2023/01/25 01:13:26;;;;;;;8.10;4.28;;;;;;;;;;7392735;19;20010;-71
2023/01/25 01:15:52;;;;;;;9.77;4.82;;;;;;;;;;7393049;19;20460;-70
2023/01/25 01:18:17;;;;;;;10.52;5.20;;;;;;;;;;7390456;19;20002;-71
2023/01/25 01:20:48;;;;;;;4.28;2.67;;;;;;;;;;7391752;19;19995;-71
2023/01/25 01:23:13;;;;;;;10.65;6.00;;;;;;;;;;7390968;19;19995;-71
2023/01/25 01:25:38;;;;;;;9.45;5.25;;;;;;;;;;7392863;19;20005;-69
2023/01/25 01:28:04;;;;;;;9.27;4.55;;;;;;;;;;7390833;19;19991;-70
2023/01/25 01:30:29;;;;;;;7.32;3.78;;;;;;;;;;7392801;19;20005;-70
2023/01/25 01:32:54;;;;;;;11.80;5.05;;;;;;;;;;7392259;19;20542;-72
2023/01/25 01:35:20;;;;;;;8.27;4.22;;;;;;;;;;7392727;19;19994;-71
2023/01/25 01:37:45;;;;;;;12.10;6.07;;;;;;;;;;7391115;19;20397;-70
2023/01/25 01:40:14;;;;;;;9.70;4.88;;;;;;;;;;7391997;19;20055;-71
2023/01/25 01:43:03;;;;;;;9.30;4.70;;;;;;;;;;7391913;19;20070;-72
2023/01/25 01:45:46;;;;;;;11.80;6.07;;;;;;;;;;7392462;19;20002;-71
2023/01/25 01:48:38;;;;;;;9.43;5.32;;;;;;;;;;7390734;19;19999;-71
2023/01/25 01:51:18;;;;;;;11.90;6.32;;;;;;;;;;7392888;19;20671;-71
2023/01/25 01:53:48;;;;;;;12.25;5.88;;;;;;;;;;7392729;19;20066;-71
2023/01/25 01:56:18;;;;;;;10.88;5.57;;;;;;;;;;7391033;19;19995;-72
2023/01/25 01:58:45;;;;;;;10.90;5.80;;;;;;;;;;7392315;19;20472;-70
2023/01/25 02:01:11;;;;;;;11.38;6.22;;;;;;;;;;7391014;19;20139;-71
2023/01/25 02:03:37;;;;;;;7.72;4.40;;;;;;;;;;7394380;19;20512;-70
2023/01/25 02:06:11;;;;;;;12.55;4.65;;;;;;;;;;7394750;19;20006;-73
2023/01/25 02:08:39;;;;;;;11.13;5.53;;;;;;;;;;7400040;19;20023;-71
2023/01/25 02:11:06;;;;;;;12.82;5.35;;;;;;;;;;7402648;19;19994;-72
2023/01/25 02:13:32;;;;;;;10.98;6.00;;;;;;;;;;7403001;19;20003;-75
2023/01/25 02:15:57;;;;;;;10.38;4.82;;;;;;;;;;7398808;19;19995;-70
2023/01/25 02:18:23;;;;;;;10.32;5.38;;;;;;;;;;7395547;19;20043;-70
2023/01/25 02:20:56;;;;;;;10.68;5.00;;;;;;;;;;7390754;19;20031;-70
2023/01/25 02:23:36;;;;;;;9.23;5.10;;;;;;;;;;7391327;19;20109;-72
2023/01/25 02:26:04;;;;;;;13.65;6.75;;;;;;;;;;7391095;19;20006;-72
2023/01/25 02:28:45;;;;;;;12.15;6.25;;;;;;;;;;7390825;19;20067;-71
2023/01/25 02:31:11;;;;;;;12.18;6.30;;;;;;;;;;7392631;19;20002;-71
2023/01/25 02:33:36;;;;;;;13.32;7.07;;;;;;;;;;7390668;19;20775;-71
2023/01/25 02:36:07;;;;;;;12.43;6.25;;;;;;;;;;7390892;19;20511;-71
2023/01/25 02:38:35;;;;;;;10.55;5.72;;;;;;;;;;7390869;19;19999;-72
2023/01/25 02:41:08;;;;;;;11.65;5.95;;;;;;;;;;7396070;19;20271;-70
2023/01/25 02:43:34;;;;;;;13.30;6.35;;;;;;;;;;7390657;19;20032;-71
2023/01/25 02:46:24;;;;;;;11.70;5.72;;;;;;;;;;7391192;19;20006;-71
2023/01/25 02:48:50;;;;;;;11.10;6.55;;;;;;;;;;7391330;19;20006;-71
2023/01/25 02:51:15;;;;;;;11.10;6.20;;;;;;;;;;7391879;19;20687;-71
2023/01/25 02:53:40;;;;;;;12.05;5.60;;;;;;;;;;7390812;19;20058;-71
2023/01/25 02:56:06;;;;;;;12.30;5.95;;;;;;;;;;7389714;19;20007;-70
2023/01/25 02:58:31;;;;;;;13.85;7.18;;;;;;;;;;7389648;19;20002;-71
2023/01/25 03:00:57;;;;;;;14.15;7.07;;;;;;;;;;7391933;19;19998;-71
2023/01/25 03:03:23;;;;;;;14.18;7.57;;;;;;;;;;7389866;19;20005;-71
2023/01/25 03:05:48;;;;;;;13.43;5.07;;;;;;;;;;7393672;19;20476;-72
2023/01/25 03:08:13;;;;;;;15.57;6.63;;;;;;;;;;7383792;19;19995;-71
2023/01/25 03:10:39;;;;;;;12.60;6.70;;;;;;;;;;7390967;19;20378;-71
2023/01/25 03:13:04;;;;;;;12.73;6.10;;;;;;;;;;7388558;19;20686;-71
2023/01/25 03:15:29;;;;;;;15.10;7.50;;;;;;;;;;7389208;19;20825;-71
2023/01/25 03:17:55;;;;;;;12.95;6.43;;;;;;;;;;7387586;19;19999;-71
2023/01/25 03:20:21;;;;;;;13.43;7.35;;;;;;;;;;7388430;19;20348;-70
2023/01/25 03:22:46;;;;;;;14.38;6.97;;;;;;;;;;7388424;19;20289;-72
2023/01/25 03:25:12;;;;;;;14.75;7.30;;;;;;;;;;7390190;19;20015;-71
2023/01/25 03:27:37;;;;;;;16.85;7.50;;;;;;;;;;7385697;19;20066;-71
2023/01/25 03:30:03;;;;;;;11.13;5.90;;;;;;;;;;7388901;19;20007;-71
2023/01/25 03:32:28;;;;;;;12.93;7.35;;;;;;;;;;7389554;19;20007;-70
2023/01/25 03:34:53;;;;;;;13.48;6.95;;;;;;;;;;7388716;19;20002;-71
2023/01/25 03:37:19;;;;;;;14.18;6.90;;;;;;;;;;7387916;19;20027;-72
2023/01/25 03:39:44;;;;;;;16.42;7.15;;;;;;;;;;7388892;19;19994;-71
2023/01/25 03:42:10;;;;;;;11.30;6.10;;;;;;;;;;7388650;19;19999;-72
2023/01/25 03:44:35;;;;;;;16.20;8.10;;;;;;;;;;7388056;19;20080;-72
2023/01/25 03:47:01;;;;;;;14.50;8.60;;;;;;;;;;7387247;19;20026;-74
2023/01/25 03:49:26;;;;;;;15.05;7.70;;;;;;;;;;7384860;19;20057;-74
2023/01/25 03:51:52;;;;;;;17.40;8.38;;;;;;;;;;7391524;19;20062;-74
2023/01/25 03:54:17;;;;;;;12.27;4.97;;;;;;;;;;7391172;19;20013;-75
2023/01/25 03:56:43;;;;;;;14.85;7.80;;;;;;;;;;7390932;19;20006;-74
2023/01/25 03:59:09;;;;;;;17.73;8.27;;;;;;;;;;7390506;19;20003;-74
2023/01/25 04:01:35;;;;;;;17.02;9.48;;;;;;;;;;7386488;19;20027;-74
2023/01/25 04:04:00;;;;;;;11.27;6.65;;;;;;;;;;7386311;19;20357;-75
2023/01/25 04:06:25;;;;;;;18.35;8.43;;;;;;;;;;7391204;19;20010;-74
2023/01/25 04:08:50;;;;;;;17.98;8.88;;;;;;;;;;7389536;19;19994;-74
2023/01/25 04:11:16;;;;;;;15.52;8.50;;;;;;;;;;7386946;19;20017;-74
2023/01/25 04:13:41;;;;;;;24.33;9.25;;;;;;;;;;7386666;19;20066;-75
2023/01/25 04:16:10;;;;;;;16.60;7.60;;;;;;;;;;7387395;19;20433;-74
2023/01/25 04:18:36;;;;;;;19.75;9.60;;;;;;;;;;7384815;19;20512;-75
2023/01/25 04:21:01;;;;;;;17.85;8.68;;;;;;;;;;7390200;19;20002;-73
2023/01/25 04:23:26;;;;;;;17.10;9.20;;;;;;;;;;7393559;19;20002;-74
2023/01/25 04:25:56;;;;;;;19.83;9.48;;;;;;;;;;7393924;19;20033;-73
2023/01/25 04:28:22;;;;;;;20.23;9.85;;;;;;;;;;7396385;19;20013;-74
2023/01/25 04:30:48;;;;;;;18.45;9.68;;;;;;;;;;7393637;19;19998;-74
2023/01/25 04:33:13;;;;;;;16.27;8.35;;;;;;;;;;7393386;19;20002;-73
2023/01/25 04:35:39;;;;;;;18.08;9.20;;;;;;;;;;7393532;19;19999;-74
2023/01/25 04:38:04;;;;;;;18.67;9.05;;;;;;;;;;7391299;19;20014;-74
2023/01/25 04:40:30;;;;;;;14.18;7.32;;;;;;;;;;7391960;19;20009;-74
2023/01/25 04:42:55;;;;;;;20.05;9.95;;;;;;;;;;7397153;19;20027;-74
2023/01/25 04:45:22;;;;;;;20.25;9.88;;;;;;;;;;7397104;19;20407;-76
2023/01/25 04:47:49;;;;;;;14.93;7.57;;;;;;;;;;7392200;19;20006;-75
2023/01/25 04:50:15;;;;;;;17.92;9.00;;;;;;;;;;7393758;19;20010;-74
2023/01/25 04:52:40;;;;;;;21.73;8.50;;;;;;;;;;7390911;19;20018;-74
2023/01/25 04:55:06;;;;;;;18.98;8.85;;;;;;;;;;7390965;19;20002;-75
2023/01/25 04:57:32;;;;;;;19.65;9.93;;;;;;;;;;7392887;19;20049;-75
2023/01/25 04:59:57;;;;;;;18.85;8.68;;;;;;;;;;7392780;19;20376;-75
2023/01/25 05:02:23;;;;;;;20.33;9.20;;;;;;;;;;7392646;19;20046;-75
2023/01/25 05:04:48;;;;;;;17.45;9.38;;;;;;;;;;7390889;19;20003;-74
2023/01/25 05:07:13;;;;;;;14.88;7.50;;;;;;;;;;7391398;19;19999;-73
2023/01/25 05:09:39;;;;;;;15.77;7.10;;;;;;;;;;7392412;19;20013;-75
2023/01/25 05:12:10;;;;;;;18.42;9.63;;;;;;;;;;7397216;19;19991;-76
2023/01/25 05:14:36;;;;;;;16.15;7.45;;;;;;;;;;7390251;19;20002;-75
2023/01/25 05:17:01;;;;;;;15.93;8.43;;;;;;;;;;7391503;19;19999;-75
2023/01/25 05:19:26;;;;;;;16.23;7.47;;;;;;;;;;7392517;19;20334;-73
2023/01/25 05:21:58;;;;;;;17.48;9.18;;;;;;;;;;7389938;19;20497;-74
2023/01/25 05:24:28;;;;;;;17.13;7.13;;;;;;;;;;7392161;19;20007;-74
2023/01/25 05:27:02;;;;;;;17.00;8.88;;;;;;;;;;7391085;19;20452;-73
2023/01/25 05:29:30;;;;;;;16.60;8.73;;;;;;;;;;7391758;19;20454;-73
2023/01/25 05:31:56;;;;;;;13.02;6.65;;;;;;;;;;7390380;19;20083;-74
2023/01/25 05:34:21;;;;;;;17.38;9.20;;;;;;;;;;7391878;19;20028;-75
2023/01/25 05:36:47;;;;;;;16.98;8.07;;;;;;;;;;7390026;19;20481;-74
2023/01/25 05:39:12;;;;;;;15.80;7.53;;;;;;;;;;7394296;19;20011;-74
2023/01/25 05:41:37;;;;;;;18.98;9.18;;;;;;;;;;7387639;19;20781;-74
2023/01/25 05:44:03;;;;;;;11.82;6.38;;;;;;;;;;7385131;19;20062;-74
2023/01/25 05:46:29;;;;;;;10.55;5.50;;;;;;;;;;7389547;19;20104;-74
2023/01/25 05:48:54;;;;;;;18.10;9.02;;;;;;;;;;7394187;19;20004;-75
2023/01/25 05:51:20;;;;;;;18.55;10.02;;;;;;;;;;7394835;19;19994;-73
2023/01/25 05:53:45;;;;;;;15.55;9.13;;;;;;;;;;7394414;19;19998;-74
2023/01/25 05:56:10;;;;;;;16.52;9.32;;;;;;;;;;7395012;19;20562;-74
2023/01/25 05:58:37;;;;;;;19.42;10.45;;;;;;;;;;7390987;19;20031;-73
2023/01/25 06:01:04;;;;;;;18.45;9.05;;;;;;;;;;7390303;19;20018;-74
2023/01/25 06:03:29;;;;;;;15.60;7.57;;;;;;;;;;7392986;19;20027;-73
2023/01/25 06:06:03;;;;;;;17.10;8.88;;;;;;;;;;7388826;19;20433;-73
2023/01/25 06:08:30;;;;;;;18.38;9.38;;;;;;;;;;7386517;19;20006;-74
2023/01/25 06:10:55;;;;;;;18.67;8.90;;;;;;;;;;7393837;19;20003;-74
2023/01/25 06:13:21;;;;;;;14.35;7.05;;;;;;;;;;7393173;19;20479;-73
2023/01/25 06:15:56;;;;;;;17.38;8.93;;;;;;;;;;7394115;19;20065;-75
2023/01/25 06:18:23;;;;;;;14.82;8.18;;;;;;;;;;7390825;19;19999;-74
2023/01/25 06:20:49;;;;;;;17.40;8.93;;;;;;;;;;7392123;19;20015;-74
2023/01/25 06:23:18;;;;;;;16.35;8.02;;;;;;;;;;7393647;19;20468;-74
2023/01/25 06:25:43;;;;;;;15.93;7.80;;;;;;;;;;7394096;19;20023;-74
2023/01/25 06:28:08;;;;;;;14.30;7.03;;;;;;;;;;7390625;19;20355;-74
2023/01/25 06:30:34;;;;;;;12.13;6.85;;;;;;;;;;7391341;19;20006;-75
2023/01/25 06:33:00;;;;;;;14.20;7.47;;;;;;;;;;7366627;19;20006;-74
2023/01/25 06:35:26;;;;;;;14.30;7.80;;;;;;;;;;7392532;19;19995;-74
2023/01/25 06:37:55;;;;;;;13.68;6.95;;;;;;;;;;7391118;19;20002;-75
2023/01/25 06:40:20;;;;;;;14.73;7.95;;;;;;;;;;7390524;19;20006;-75
2023/01/25 06:42:45;;;;;;;15.48;7.70;;;;;;;;;;7389251;19;20138;-74
2023/01/25 06:45:11;;;;;;;15.55;7.97;;;;;;;;;;7392528;19;20003;-74
2023/01/25 06:47:36;;;;;;;15.55;8.30;;;;;;;;;;7368494;19;20029;-74
2023/01/25 06:50:01;;;;;;;13.10;6.13;;;;;;;;;;7389985;19;20392;-75
2023/01/25 06:52:27;;;;;;;19.55;8.88;;;;;;;;;;7390841;19;20003;-74
2023/01/25 06:54:52;;;;;;;17.10;7.78;;;;;;;;;;7392566;19;19994;-75
2023/01/25 06:57:17;;;;;;;11.13;6.25;;;;;;;;;;7391068;19;20557;-74
2023/01/25 06:59:43;;;;;;;13.65;7.45;;;;;;;;;;7393037;19;19991;-75
2023/01/25 07:02:14;;;;;;;11.20;6.05;;;;;;;;;;7390305;19;19986;-75
2023/01/25 07:04:39;;;;;;;15.13;8.02;;;;;;;;;;7390446;19;20001;-76
2023/01/25 07:07:07;;;;;;;16.67;8.15;;;;;;;;;;7390466;19;20006;-75
2023/01/25 07:09:33;;;;;;;18.20;9.27;;;;;;;;;;7390490;19;20066;-75
2023/01/25 07:11:58;;;;;;;15.00;7.82;;;;;;;;;;7391252;19;20010;-75
2023/01/25 07:14:24;;;;;;;16.33;7.65;;;;;;;;;;7390681;19;19995;-75
2023/01/25 07:16:49;;;;;;;13.35;7.35;;;;;;;;;;7390039;19;20069;-75
2023/01/25 07:19:16;;;;;;;15.85;8.57;;;;;;;;;;7390546;19;20016;-75
2023/01/25 07:21:42;;;;;;;17.52;7.55;;;;;;;;;;7390641;19;20002;-75
2023/01/25 07:24:13;;;;;;;15.80;8.57;;;;;;;;;;7388007;19;20006;-74
2023/01/25 07:26:38;;;;;;;;;;;;;;;;;;7390256;19;20507;-75
2023/01/25 07:29:03;;;;;;;16.60;7.67;;;;;;;;;;7389614;19;19923;-73
2023/01/25 07:31:29;;;;;;;13.50;7.05;;;;;;;;;;7391269;19;20343;-75
2023/01/25 07:33:56;;;;;;;13.65;7.35;;;;;;;;;;7390739;19;19998;-75
2023/01/25 07:36:22;;;;;;;10.45;5.30;;;;;;;;;;7388784;19;20003;-74
2023/01/25 07:38:51;;;;;;;14.65;7.45;;;;;;;;;;7389519;19;20684;-74
2023/01/25 07:41:16;;;;;;;14.82;7.60;;;;;;;;;;7389133;19;20006;-76
2023/01/25 07:43:42;;;;;;;17.30;8.23;;;;;;;;;;7390519;19;20037;-75
2023/01/25 07:46:12;;;;;;;20.58;10.35;;;;;;;;;;7388941;19;19990;-75
2023/01/25 07:48:39;;;;;;;21.10;11.38;;;;;;;;;;7389889;19;20441;-75
2023/01/25 07:51:22;;;;;;;15.60;7.70;;;;;;;;;;7390365;19;20027;-74
2023/01/25 07:53:53;;;;;;;16.83;8.68;;;;;;;;;;7383455;19;20002;-71
2023/01/25 07:56:21;;;;;;;16.77;8.60;;;;;;;;;;7390869;19;19995;-70
2023/01/25 07:58:47;;;;;;;16.05;7.90;;;;;;;;;;7388295;19;20073;-70
2023/01/25 08:01:15;;;;;;;18.70;8.50;;;;;;;;;;7389923;19;20020;-70
2023/01/25 08:03:40;;;;;;;17.25;8.68;;;;;;;;;;7391560;19;20013;-70
2023/01/25 08:06:07;;;;;;;16.65;9.27;;;;;;;;;;7390353;19;19999;-70
2023/01/25 08:08:34;;;;;;;16.02;8.35;;;;;;;;;;7387022;19;20070;-70
2023/01/25 08:11:21;;;;;;;14.52;8.20;;;;;;;;;;7389367;19;20066;-70
2023/01/25 08:13:47;;;;;;;17.25;9.48;;;;;;;;;;7390669;19;20003;-69
2023/01/25 08:16:14;;;;;;;22.55;10.15;;;;;;;;;;7389945;19;20007;-70
2023/01/25 08:18:40;;;;;;;17.95;8.35;;;;;;;;;;7386391;19;20009;-71
2023/01/25 08:21:05;;;;;;;19.65;10.15;;;;;;;;;;7388493;19;20341;-69
2023/01/25 08:23:30;;;;;;;17.80;9.15;;;;;;;;;;7387674;19;19991;-70
2023/01/25 08:26:04;;;;;;;15.68;8.50;;;;;;;;;;7389681;19;20007;-69
2023/01/25 08:28:30;;;;;;;16.67;9.73;;;;;;;;;;7386785;19;20006;-74
2023/01/25 08:31:20;;;;;;;16.13;9.43;;;;;;;;;;7389541;19;20009;-73
2023/01/25 08:33:46;;;;;;;18.25;9.25;;;;;;;;;;7390356;19;20003;-74
2023/01/25 08:36:13;;;;;;;23.38;10.32;;;;;;;;;;7387707;19;19998;-77
2023/01/25 08:38:38;;;;;;;13.02;6.00;;;;;;;;;;7385345;19;20024;-77
2023/01/25 08:41:15;;;;;;;20.27;9.63;;;;;;;;;;7389052;19;19999;-75
2023/01/25 08:43:45;;;;;;;18.48;10.02;;;;;;;;;;7389076;19;20006;-81
2023/01/25 08:46:12;;;;;;;24.45;11.90;;;;;;;;;;7390273;19;19998;-78
2023/01/25 08:48:37;;;;;;;21.60;10.52;;;;;;;;;;7384192;19;19994;-75
2023/01/25 08:51:03;;;;;;;16.42;8.63;;;;;;;;;;7389546;19;20003;-79
2023/01/25 08:53:30;;;;;;;22.95;11.02;;;;;;;;;;7388683;19;19998;-71
2023/01/25 08:56:01;;;;;;;22.52;10.75;;;;;;;;;;7387596;19;20069;-73
2023/01/25 08:58:26;;;;;;;19.27;9.10;;;;;;;;;;7387208;19;20009;-72
2023/01/25 09:00:51;;;;;;;20.83;11.13;;;;;;;;;;7387112;19;20010;-73
2023/01/25 09:03:17;;;;;;;34.33;11.52;;;;;;;;;;7386777;19;20006;-73
2023/01/25 09:05:42;;;;;;;23.23;9.25;;;;;;;;;;7388050;19;20062;-74
2023/01/25 09:08:09;;;;;;;20.95;9.02;;;;;;;;;;7390587;19;20440;-73
2023/01/25 09:10:34;;;;;;;15.88;7.38;;;;;;;;;;7394732;19;20349;-73
2023/01/25 09:13:00;;;;;;;19.15;9.60;;;;;;;;;;7394667;19;20014;-74
2023/01/25 09:15:25;;;;;;;22.33;9.68;;;;;;;;;;7395980;19;19998;-73
2023/01/25 09:17:52;;;;;;;23.33;10.95;;;;;;;;;;7394360;19;20695;-73
2023/01/25 09:20:17;;;;;;;25.08;9.48;;;;;;;;;;7394428;19;19998;-73
2023/01/25 09:22:43;;;;;;;25.40;12.38;;;;;;;;;;7393246;19;20002;-72
2023/01/25 09:25:08;;;;;;;24.13;10.82;;;;;;;;;;7394723;19;20011;-72
2023/01/25 09:27:34;;;;;;;26.10;11.40;;;;;;;;;;7393666;19;19994;-73
2023/01/25 09:29:59;;;;;;;20.30;10.48;;;;;;;;;;7396611;19;19986;-72
2023/01/25 09:32:24;;;;;;;19.95;10.77;;;;;;;;;;7393347;19;19999;-71
2023/01/25 09:34:50;;;;;;;20.15;10.13;;;;;;;;;;7393926;19;20008;-71
2023/01/25 09:37:15;;;;;;;18.88;9.30;;;;;;;;;;7393892;19;19990;-70
2023/01/25 09:39:40;;;;;;;21.70;10.70;;;;;;;;;;7393123;19;20005;-70
2023/01/25 09:42:08;;;;;;;20.35;9.27;;;;;;;;;;7390457;19;19995;-71
2023/01/25 09:44:47;;;;;;;20.88;10.90;;;;;;;;;;7393266;19;20480;-72
2023/01/25 09:47:25;;;;;;;21.60;10.45;;;;;;;;;;7393580;19;20031;-78
2023/01/25 09:50:09;;;;;;;24.80;10.68;;;;;;;;;;7395599;19;20546;-78
2023/01/25 09:52:56;;;;;;;22.02;10.52;;;;;;;;;;7393098;19;20018;-72
2023/01/25 09:55:26;;;;;;;26.42;10.52;;;;;;;;;;7395942;19;20017;-74
2023/01/25 09:57:55;;;;;;;23.10;10.65;;;;;;;;;;7395502;19;20168;-74
2023/01/25 10:00:26;;;;;;;20.38;9.15;;;;;;;;;;7391199;19;20013;-73
2023/01/25 10:02:58;;;;;;;28.65;12.35;;;;;;;;;;7402081;19;20013;-76
2023/01/25 10:05:31;;;;;;;20.90;10.00;;;;;;;;;;7400828;19;19998;-75
2023/01/25 10:08:09;;;;;;;22.23;10.80;;;;;;;;;;7393279;19;20434;-75
2023/01/25 10:10:37;;;;;;;21.52;9.65;;;;;;;;;;7396425;19;19998;-72
2023/01/25 10:13:03;;;;;;;20.27;9.00;;;;;;;;;;7397765;19;20002;-74
2023/01/25 10:15:31;;;;;;;24.15;10.07;;;;;;;;;;7398014;19;19999;-73
2023/01/25 10:18:16;;;;;;;27.58;10.73;;;;;;;;;;7396126;19;19998;-73
2023/01/25 10:20:41;;;;;;;22.20;10.18;;;;;;;;;;7394265;19;19995;-76
2023/01/25 10:23:44;;;;;;;24.13;11.95;;;;;;;;;;7392487;19;20350;-73
2023/01/25 10:26:18;;;;;;;15.10;8.10;;;;;;;;;;7391833;19;20355;-72
2023/01/25 10:28:58;;;;;;;32.13;12.68;;;;;;;;;;7390683;19;20016;-75
2023/01/25 10:31:45;;;;;;;22.73;10.13;;;;;;;;;;7393009;19;20014;-73
2023/01/25 10:34:21;;;;;;;26.73;12.02;;;;;;;;;;7390907;19;20015;-73
2023/01/25 10:36:52;;;;;;;15.85;9.05;;;;;;;;;;7387920;19;20322;-74
2023/01/25 10:39:18;;;;;;;26.88;11.90;;;;;;;;;;7389858;19;20027;-74
2023/01/25 10:42:05;;;;;;;21.55;10.32;;;;;;;;;;7387273;19;20022;-75
2023/01/25 10:44:31;;;;;;;21.15;9.85;;;;;;;;;;7387362;19;20018;-75
2023/01/25 10:47:00;;;;;;;18.05;8.65;;;;;;;;;;7388032;19;20752;-75
2023/01/25 10:49:34;;;;;;;19.38;9.23;;;;;;;;;;7388780;19;20461;-73
2023/01/25 10:52:19;;;;;;;23.77;10.07;;;;;;;;;;7394859;19;20005;-73
2023/01/25 10:54:45;;;;;;;21.92;9.55;;;;;;;;;;7391193;19;20017;-73
2023/01/25 10:57:16;;;;;;;23.33;9.68;;;;;;;;;;7391877;19;20013;-74
2023/01/25 10:59:45;;;;;;;20.65;9.20;;;;;;;;;;7393652;19;20507;-72
2023/01/25 11:02:35;;;;;;;20.70;9.80;;;;;;;;;;7388578;19;20030;-74
2023/01/25 11:05:25;;;;;;;20.80;9.82;;;;;;;;;;7392698;19;20002;-74
2023/01/25 11:07:51;;;;;;;25.05;11.52;;;;;;;;;;7391990;19;20009;-74
2023/01/25 11:10:32;;;;;;;21.67;10.82;;;;;;;;;;7390517;19;20006;-74
2023/01/25 11:13:28;;;;;;;20.90;10.47;;;;;;;;;;7390688;19;20011;-74
2023/01/25 11:16:15;;;;;;;23.90;10.55;;;;;;;;;;7392155;19;20058;-74
2023/01/25 11:18:50;;;;;;;22.25;9.75;;;;;;;;;;7389265;19;20088;-74
2023/01/25 11:21:20;;;;;;;22.90;10.50;;;;;;;;;;7394807;19;20003;-79
2023/01/25 11:24:24;;;;;;;23.53;11.10;;;;;;;;;;7392282;19;19998;-76
2023/01/25 11:26:49;;;;;;;22.52;10.35;;;;;;;;;;7384934;19;19998;-76
2023/01/25 11:29:20;;;;;;;24.98;10.93;;;;;;;;;;7387671;19;20314;-76
2023/01/25 11:31:52;;;;;;;26.20;12.10;;;;;;;;;;7392488;19;19999;-76
2023/01/25 11:34:19;;;;;;;23.98;10.80;;;;;;;;;;7386379;19;20223;-76
2023/01/25 11:36:57;;;;;;;25.48;11.48;;;;;;;;;;7385688;19;20006;-75
2023/01/25 11:39:43;;;;;;;14.40;7.43;;;;;;;;;;7392021;19;20002;-75
2023/01/25 11:42:32;;;;;;;24.05;11.18;;;;;;;;;;7389898;19;20545;-75
2023/01/25 11:45:31;;;;;;;20.10;9.63;;;;;;;;;;7390988;19;20007;-76
2023/01/25 11:48:22;;;;;;;31.38;12.77;;;;;;;;;;7391133;19;19994;-76
2023/01/25 11:51:05;;;;;;;23.05;11.07;;;;;;;;;;7390186;19;20011;-76
2023/01/25 11:53:46;;;;;;;29.80;13.95;;;;;;;;;;7391602;19;20233;-76
2023/01/25 11:56:43;;;;;;;25.88;12.18;;;;;;;;;;7388862;19;20532;-76
2023/01/25 11:59:11;;;;;;;27.33;11.00;;;;;;;;;;7389130;19;20465;-75
2023/01/25 12:02:14;;;;;;;30.20;13.50;;;;;;;;;;7390260;19;20002;-76
2023/01/25 12:05:06;;;;;;;29.23;12.93;;;;;;;;;;7388332;19;19994;-76
2023/01/25 12:07:49;;;;;;;32.85;11.88;;;;;;;;;;7389744;19;20006;-75
2023/01/25 12:10:38;;;;;;;24.92;11.18;;;;;;;;;;7387699;19;19995;-75
2023/01/25 12:13:10;;;;;;;26.92;12.38;;;;;;;;;;7390829;19;20009;-76
2023/01/25 12:15:49;;;;;;;26.98;13.10;;;;;;;;;;7392250;19;20333;-76
2023/01/25 12:18:46;;;;;;;21.92;9.55;;;;;;;;;;7388077;19;20005;-76
2023/01/25 12:21:23;;;;;;;29.85;12.02;;;;;;;;;;7389196;19;19998;-74
2023/01/25 12:23:59;;;;;;;30.02;13.73;;;;;;;;;;7392622;19;20003;-75
2023/01/25 12:26:33;;;;;;;17.15;8.90;;;;;;;;;;7392028;19;20314;-74
2023/01/25 12:29:22;;;;;;;24.95;12.38;;;;;;;;;;7388092;19;20002;-76
2023/01/25 12:32:07;;;;;;;27.20;13.52;;;;;;;;;;7393117;19;19994;-76
2023/01/25 12:34:39;;;;;;;24.20;10.38;;;;;;;;;;7389625;19;20006;-76
2023/01/25 12:37:19;;;;;;;26.50;11.73;;;;;;;;;;7385247;19;20003;-77
2023/01/25 12:39:49;;;;;;;25.10;11.75;;;;;;;;;;7388953;19;20527;-76
2023/01/25 12:42:21;;;;;;;23.73;10.95;;;;;;;;;;7395259;19;19995;-77
2023/01/25 12:45:03;;;;;;;28.85;14.23;;;;;;;;;;7397472;19;20058;-76
2023/01/25 12:47:38;;;;;;;21.52;10.55;;;;;;;;;;7396171;19;20002;-77
2023/01/25 12:50:17;;;;;;;31.38;14.23;;;;;;;;;;7398081;19;20365;-75
2023/01/25 12:52:48;;;;;;;18.42;8.60;;;;;;;;;;7399852;19;20138;-76
2023/01/25 12:55:16;;;;;;;34.72;13.18;;;;;;;;;;7397708;19;20518;-75
2023/01/25 12:58:00;;;;;;;22.25;9.90;;;;;;;;;;7397311;19;19995;-75
2023/01/25 13:00:38;;;;;;;26.25;13.68;;;;;;;;;;7397473;19;19991;-76
2023/01/25 13:03:29;;;;;;;35.15;14.80;;;;;;;;;;7396751;19;20002;-76
2023/01/25 13:06:28;;;;;;;23.73;12.15;;;;;;;;;;7398712;19;20002;-76
2023/01/25 13:08:53;;;;;;;31.17;13.10;;;;;;;;;;7393978;19;20002;-76
2023/01/25 13:11:26;;;;;;;30.58;13.95;;;;;;;;;;7397425;19;20498;-76
2023/01/25 13:13:51;;;;;;;24.02;10.80;;;;;;;;;;7393236;19;20039;-77
2023/01/25 13:16:35;;;;;;;25.75;13.02;;;;;;;;;;7395637;19;20002;-76
2023/01/25 13:19:00;;;;;;;34.33;15.00;;;;;;;;;;7391505;19;20074;-77
2023/01/25 13:21:35;;;;;;;29.50;14.30;;;;;;;;;;7392132;19;20002;-77
2023/01/25 13:24:30;;;;;;;32.60;15.55;;;;;;;;;;7394571;19;20023;-77
2023/01/25 13:26:56;;;;;;;26.60;12.73;;;;;;;;;;7397112;19;20312;-76
2023/01/25 13:29:44;;;;;;;34.17;15.32;;;;;;;;;;7393852;19;20006;-76
2023/01/25 13:32:34;;;;;;;32.50;14.93;;;;;;;;;;7394959;19;20003;-76
2023/01/25 13:35:00;;;;;;;31.05;14.35;;;;;;;;;;7387663;19;20031;-76
2023/01/25 13:37:31;;;;;;;30.00;13.68;;;;;;;;;;7393289;19;20030;-75
2023/01/25 13:39:58;;;;;;;24.17;11.40;;;;;;;;;;7393535;19;20018;-77
2023/01/25 13:42:27;;;;;;;23.13;10.57;;;;;;;;;;7391396;19;20029;-76
2023/01/25 13:44:56;;;;;;;28.35;12.48;;;;;;;;;;7395846;19;20380;-76
2023/01/25 13:47:30;;;;;;;21.65;10.63;;;;;;;;;;7389306;19;20018;-76
2023/01/25 13:50:17;;;;;;;28.23;11.55;;;;;;;;;;7393738;19;20019;-77
2023/01/25 13:52:59;;;;;;;28.83;12.80;;;;;;;;;;7393531;19;20020;-76
2023/01/25 13:55:25;;;;;;;22.13;10.88;;;;;;;;;;7398216;19;19991;-76
2023/01/25 13:57:51;;;;;;;24.08;11.18;;;;;;;;;;7394821;19;20017;-77
2023/01/25 14:00:17;;;;;;;29.27;12.70;;;;;;;;;;7393871;19;20472;-77
2023/01/25 14:02:44;;;;;;;30.40;14.40;;;;;;;;;;7394501;19;20023;-75
2023/01/25 14:05:23;;;;;;;33.03;13.73;;;;;;;;;;7395379;19;20003;-76
2023/01/25 14:07:51;;;;;;;25.80;12.10;;;;;;;;;;7395223;19;20003;-76
2023/01/25 14:10:22;;;;;;;29.08;13.82;;;;;;;;;;7396210;19;20108;-76
2023/01/25 14:12:49;;;;;;;26.15;12.95;;;;;;;;;;7395795;19;20369;-74
2023/01/25 14:15:30;;;;;;;29.30;13.32;;;;;;;;;;7397412;19;20058;-78
2023/01/25 14:18:15;;;;;;;30.17;14.45;;;;;;;;;;7394422;19;20006;-76
2023/01/25 14:20:41;;;;;;;30.80;12.55;;;;;;;;;;7393378;19;19995;-77
2023/01/25 14:23:23;;;;;;;20.73;8.77;;;;;;;;;;7399039;19;20031;-75
2023/01/25 14:25:49;;;;;;;29.70;13.57;;;;;;;;;;7399067;19;20395;-76
2023/01/25 14:28:14;;;;;;;26.20;13.10;;;;;;;;;;7406130;19;19999;-75
2023/01/25 14:30:40;;;;;;;29.77;13.05;;;;;;;;;;7414823;19;20014;-75
2023/01/25 14:33:23;;;;;;;27.77;12.63;;;;;;;;;;7401876;19;20453;-75
2023/01/25 14:35:50;;;;;;;26.95;13.10;;;;;;;;;;7394867;19;20002;-76
2023/01/25 14:38:34;;;;;;;25.58;12.02;;;;;;;;;;7391759;19;19998;-76
2023/01/25 14:41:02;;;;;;;27.55;12.65;;;;;;;;;;7394018;19;20362;-76
2023/01/25 14:43:28;;;;;;;27.35;12.90;;;;;;;;;;7368218;19;20027;-76
2023/01/25 14:45:54;;;;;;;32.97;13.93;;;;;;;;;;7391475;19;20130;-77